Green River, Wyoming
Current Conditions -  °F | °C
As of 6:54 PM on Wednesday 22 Oct 2014 (Local Time) from KRKS Reporting Station
Clear Clear  
Wind Chill: 41°   Ceiling: Unl
Heat Index: 45°   Visibility: 10mi
Dew Point: 20°   Wind: 7mph
Humidity: 37%   Direction: 300°WNW
Pressure: 30.21"   Gusts: NA
Location:  41.53°N, 109.46°W
Report Text: KRKS 230054Z AUTO 30006KT 10SM CLR 07/M07 A3021 RMK AO2 SLP223 T00721067
Loading
Personal Weather Stations






























Interactive Weather Map
Tropical Storm Tracking
New forecast layout! Learn more

10-Day Weather Forecast

Advertisements
Track Severe Weather on mobile